sensor_id;sensor_type;location;lat;lon;timestamp;P1;durP1;ratioP1;P2;durP2;ratioP2
9324;SDS011;4701;51.566;6.776;2023-08-20T05:14:02;6.87;;;4.77;;
9324;SDS011;4701;51.566;6.776;2023-08-20T05:17:04;6.17;;;4.90;;
9324;SDS011;4701;51.566;6.776;2023-08-20T05:20:06;6.20;;;5.50;;
9324;SDS011;4701;51.566;6.776;2023-08-20T05:23:09;5.93;;;5.27;;
9324;SDS011;4701;51.566;6.776;2023-08-20T05:26:11;6.70;;;5.47;;
9324;SDS011;4701;51.566;6.776;2023-08-20T05:29:14;7.67;;;5.77;;
9324;SDS011;4701;51.566;6.776;2023-08-20T05:32:15;5.20;;;4.70;;
9324;SDS011;4701;51.566;6.776;2023-08-20T05:35:17;7.30;;;5.90;;
9324;SDS011;4701;51.566;6.776;2023-08-20T05:38:19;6.80;;;5.20;;
9324;SDS011;4701;51.566;6.776;2023-08-20T05:41:20;7.93;;;5.77;;
9324;SDS011;4701;51.566;6.776;2023-08-20T05:44:23;7.20;;;6.20;;
9324;SDS011;4701;51.566;6.776;2023-08-20T05:47:25;6.80;;;5.90;;
9324;SDS011;4701;51.566;6.776;2023-08-20T05:50:26;12.40;;;6.57;;
9324;SDS011;4701;51.566;6.776;2023-08-20T05:53:28;8.00;;;5.73;;
9324;SDS011;4701;51.566;6.776;2023-08-20T05:56:30;7.60;;;6.33;;
9324;SDS011;4701;51.566;6.776;2023-08-20T05:59:32;8.33;;;6.23;;
9324;SDS011;4701;51.566;6.776;2023-08-20T06:02:34;9.00;;;6.40;;
9324;SDS011;4701;51.566;6.776;2023-08-20T06:05:36;9.03;;;6.57;;
9324;SDS011;4701;51.566;6.776;2023-08-20T06:08:38;12.63;;;6.80;;
9324;SDS011;4701;51.566;6.776;2023-08-20T06:11:40;8.20;;;6.30;;
9324;SDS011;4701;51.566;6.776;2023-08-20T06:14:43;8.63;;;6.77;;
9324;SDS011;4701;51.566;6.776;2023-08-20T06:17:44;9.20;;;6.83;;
9324;SDS011;4701;51.566;6.776;2023-08-20T06:20:46;10.53;;;8.00;;
9324;SDS011;4701;51.566;6.776;2023-08-20T06:23:47;9.50;;;7.53;;
9324;SDS011;4701;51.566;6.776;2023-08-20T06:26:49;12.23;;;9.70;;
9324;SDS011;4701;51.566;6.776;2023-08-20T06:29:52;17.23;;;11.53;;
9324;SDS011;4701;51.566;6.776;2023-08-20T06:32:54;15.97;;;10.90;;
9324;SDS011;4701;51.566;6.776;2023-08-20T06:35:55;13.77;;;10.68;;
9324;SDS011;4701;51.566;6.776;2023-08-20T06:38:57;12.17;;;10.07;;
9324;SDS011;4701;51.566;6.776;2023-08-20T06:41:58;14.30;;;11.27;;
9324;SDS011;4701;51.566;6.776;2023-08-20T06:45:02;14.73;;;12.00;;
9324;SDS011;4701;51.566;6.776;2023-08-20T06:48:04;17.35;;;13.32;;
9324;SDS011;4701;51.566;6.776;2023-08-20T06:51:10;16.37;;;12.57;;
9324;SDS011;4701;51.566;6.776;2023-08-20T06:54:14;16.23;;;13.10;;
9324;SDS011;4701;51.566;6.776;2023-08-20T06:57:16;16.57;;;11.87;;
9324;SDS011;4701;51.566;6.776;2023-08-20T07:00:19;16.70;;;13.27;;
9324;SDS011;4701;51.566;6.776;2023-08-20T07:03:21;13.33;;;11.60;;
9324;SDS011;4701;51.566;6.776;2023-08-20T07:06:23;16.77;;;12.63;;
9324;SDS011;4701;51.566;6.776;2023-08-20T07:09:25;14.18;;;10.82;;
9324;SDS011;4701;51.566;6.776;2023-08-20T07:12:27;13.35;;;10.52;;
9324;SDS011;4701;51.566;6.776;2023-08-20T07:15:30;14.88;;;10.90;;
9324;SDS011;4701;51.566;6.776;2023-08-20T07:18:32;15.63;;;11.70;;
9324;SDS011;4701;51.566;6.776;2023-08-20T07:21:33;13.45;;;11.43;;
9324;SDS011;4701;51.566;6.776;2023-08-20T07:24:35;16.63;;;10.97;;
9324;SDS011;4701;51.566;6.776;2023-08-20T07:27:36;15.77;;;12.60;;
9324;SDS011;4701;51.566;6.776;2023-08-20T07:30:39;12.93;;;11.07;;
9324;SDS011;4701;51.566;6.776;2023-08-20T07:33:41;13.18;;;10.63;;
9324;SDS011;4701;51.566;6.776;2023-08-20T07:36:46;13.40;;;10.63;;
9324;SDS011;4701;51.566;6.776;2023-08-20T07:39:48;16.67;;;12.35;;
9324;SDS011;4701;51.566;6.776;2023-08-20T07:42:50;15.77;;;11.73;;
9324;SDS011;4701;51.566;6.776;2023-08-20T07:45:53;21.40;;;16.27;;
9324;SDS011;4701;51.566;6.776;2023-08-20T07:48:55;19.13;;;15.32;;
9324;SDS011;4701;51.566;6.776;2023-08-20T07:51:56;16.98;;;12.80;;
9324;SDS011;4701;51.566;6.776;2023-08-20T07:54:58;16.35;;;12.95;;
9324;SDS011;4701;51.566;6.776;2023-08-20T07:57:59;15.93;;;11.98;;
9324;SDS011;4701;51.566;6.776;2023-08-20T08:01:02;16.88;;;12.48;;
9324;SDS011;4701;51.566;6.776;2023-08-20T08:04:04;15.10;;;11.13;;
9324;SDS011;4701;51.566;6.776;2023-08-20T08:07:06;15.05;;;11.68;;
9324;SDS011;4701;51.566;6.776;2023-08-20T08:10:08;14.80;;;11.25;;
9324;SDS011;4701;51.566;6.776;2023-08-20T08:13:10;13.13;;;10.63;;
9324;SDS011;4701;51.566;6.776;2023-08-20T08:16:13;16.95;;;11.80;;
9324;SDS011;4701;51.566;6.776;2023-08-20T08:19:14;16.30;;;12.43;;
9324;SDS011;4701;51.566;6.776;2023-08-20T08:22:16;14.88;;;11.73;;
9324;SDS011;4701;51.566;6.776;2023-08-20T08:25:18;14.90;;;11.73;;
9324;SDS011;4701;51.566;6.776;2023-08-20T08:28:20;14.57;;;12.40;;
9324;SDS011;4701;51.566;6.776;2023-08-20T08:31:23;16.90;;;12.95;;
9324;SDS011;4701;51.566;6.776;2023-08-20T08:34:24;14.50;;;12.50;;
9324;SDS011;4701;51.566;6.776;2023-08-20T08:37:26;13.73;;;11.93;;
9324;SDS011;4701;51.566;6.776;2023-08-20T08:40:28;18.88;;;13.63;;
9324;SDS011;4701;51.566;6.776;2023-08-20T08:43:30;15.38;;;12.43;;
9324;SDS011;4701;51.566;6.776;2023-08-20T08:46:34;21.80;;;17.20;;
9324;SDS011;4701;51.566;6.776;2023-08-20T08:49:36;16.52;;;13.30;;
9324;SDS011;4701;51.566;6.776;2023-08-20T08:52:39;14.88;;;12.80;;
9324;SDS011;4701;51.566;6.776;2023-08-20T08:55:42;13.07;;;10.85;;
9324;SDS011;4701;51.566;6.776;2023-08-20T08:58:43;13.20;;;11.65;;
